Time;durP1;ratioP1;P1;durP2;ratioP2;P2;SDS_P1;SDS_P2;PMS_P1;PMS_P2;Temp;Humidity;BMP_temperature;BMP_pressure;BME280_temperature;BME280_humidity;BME280_pressure;Samples;Min_cycle;Max_cycle;Signal;HPM_P1;HPM_P2
2021/08/12 00:01:38;;;;;;;9.55;4.95;;;;;;;25.53;49.31;100196.28;4862192;29;20065;-82
2021/08/12 00:04:05;;;;;;;7.40;5.20;;;;;;;25.46;49.86;100200.66;4862545;29;20137;-83
2021/08/12 00:06:32;;;;;;;8.60;5.22;;;;;;;25.36;50.14;100204.53;4862365;29;20050;-84
2021/08/12 00:08:59;;;;;;;6.70;3.80;;;;;;;25.38;50.05;100203.34;4862260;29;20037;-84
2021/08/12 00:11:26;;;;;;;5.15;4.00;;;;;;;25.32;50.31;100204.03;4862073;29;20497;-84
2021/08/12 00:13:52;;;;;;;4.53;4.13;;;;;;;25.24;50.35;100202.22;4862332;29;20042;-83
2021/08/12 00:16:19;;;;;;;11.52;4.57;;;;;;;25.15;51.04;100205.94;4865680;29;20425;-83
2021/08/12 00:18:52;;;;;;;6.47;4.65;;;;;;;25.16;51.20;100204.94;4864778;29;20132;-83
2021/08/12 00:21:19;;;;;;;8.82;4.88;;;;;;;25.01;51.70;100206.63;4875212;29;20041;-85
2021/08/12 00:23:46;;;;;;;5.75;4.93;;;;;;;25.04;51.71;100207.13;4872687;29;20069;-85
2021/08/12 00:26:12;;;;;;;10.38;5.60;;;;;;;24.97;52.08;100207.94;4862416;29;20042;-85
2021/08/12 00:28:39;;;;;;;8.30;5.03;;;;;;;25.01;52.09;100204.78;4861581;29;20044;-84
2021/08/12 00:31:06;;;;;;;10.82;5.28;;;;;;;25.15;51.47;100205.13;4869868;29;20477;-84
2021/08/12 00:33:34;;;;;;;7.40;4.40;;;;;;;25.17;51.28;100203.94;4862371;29;20049;-84
2021/08/12 00:36:02;;;;;;;7.40;5.25;;;;;;;25.26;51.26;100199.41;4867599;29;20057;-84
2021/08/12 00:38:30;;;;;;;6.50;5.10;;;;;;;25.24;51.23;100206.72;4863223;29;20041;-82
2021/08/12 00:40:57;;;;;;;9.45;4.90;;;;;;;25.11;51.57;100204.63;4868283;29;20071;-84
2021/08/12 00:43:26;;;;;;;8.05;5.63;;;;;;;24.90;52.49;100205.13;4861485;29;20049;-84
2021/08/12 00:45:53;;;;;;;8.68;5.38;;;;;;;24.85;52.86;100204.81;4861494;29;20038;-84
2021/08/12 00:48:20;;;;;;;8.85;5.07;;;;;;;24.87;53.26;100204.63;4876396;29;20045;-83
2021/08/12 00:50:47;;;;;;;5.95;5.38;;;;;;;24.87;53.25;100213.47;4879960;29;20045;-82
2021/08/12 00:53:14;;;;;;;14.82;5.65;;;;;;;24.89;53.60;100210.66;4878895;29;20441;-82
2021/08/12 00:55:46;;;;;;;5.82;5.05;;;;;;;24.81;53.64;100214.16;4874017;29;20468;-82
2021/08/12 00:58:16;;;;;;;7.65;5.85;;;;;;;24.78;53.90;100217.16;4860155;29;20064;-82
2021/08/12 01:00:43;;;;;;;7.57;5.10;;;;;;;24.84;53.58;100216.50;4862791;29;20042;-85
2021/08/12 01:03:12;;;;;;;6.78;5.18;;;;;;;24.77;53.70;100220.84;4878357;29;20049;-85
2021/08/12 01:05:48;;;;;;;14.80;4.63;;;;;;;24.86;53.56;100219.81;4870802;29;20417;-85
2021/08/12 01:08:33;;;;;;;15.00;6.15;;;;;;;24.85;53.22;100218.16;4871642;29;20068;-85
2021/08/12 01:11:15;;;;;;;9.07;5.15;;;;;;;24.66;53.93;100218.50;4876406;29;20102;-84
2021/08/12 01:14:00;;;;;;;9.85;5.72;;;;;;;24.73;53.56;100222.19;4872090;29;20057;-84
2021/08/12 01:16:30;;;;;;;9.02;5.03;;;;;;;24.75;52.98;100218.31;4859728;29;20049;-85
2021/08/12 01:19:02;;;;;;;9.70;4.93;;;;;;;24.79;52.11;100218.84;4864397;29;20128;-84
2021/08/12 01:21:50;;;;;;;7.68;4.93;;;;;;;24.94;51.51;100217.13;4859881;29;20073;-85
2021/08/12 01:24:20;;;;;;;5.30;4.80;;;;;;;24.85;51.86;100215.47;4859639;29;20117;-83
2021/08/12 01:26:53;;;;;;;12.30;4.60;;;;;;;24.79;51.92;100213.50;4859711;29;20057;-83
2021/08/12 01:29:47;;;;;;;5.20;4.68;;;;;;;24.61;52.71;100213.69;4859922;29;20094;-83
2021/08/12 01:32:56;;;;;;;6.22;4.40;;;;;;;24.59;52.13;100217.53;4859849;29;20088;-83
2021/08/12 01:35:23;;;;;;;7.13;4.43;;;;;;;24.49;52.08;100213.19;4840837;29;20050;-83
2021/08/12 01:37:59;;;;;;;7.60;4.85;;;;;;;24.48;52.08;100219.53;4859410;29;20492;-83
2021/08/12 01:40:29;;;;;;;6.07;4.53;;;;;;;24.52;52.05;100215.53;4859379;29;20076;-83
2021/08/12 01:42:58;;;;;;;4.85;4.40;;;;;;;24.46;52.19;100208.22;4859546;29;20139;-83
2021/08/12 01:45:27;;;;;;;5.05;4.65;;;;;;;24.41;52.41;100215.88;4866524;29;20128;-84
2021/08/12 01:47:56;;;;;;;11.00;4.88;;;;;;;24.44;52.42;100215.53;4859448;29;20088;-83
2021/08/12 01:50:24;;;;;;;8.27;5.70;;;;;;;24.39;51.94;100212.53;4859078;29;20056;-83
2021/08/12 01:52:53;;;;;;;5.63;4.00;;;;;;;24.54;51.64;100218.84;4864338;29;20082;-82
2021/08/12 01:55:28;;;;;;;6.45;4.57;;;;;;;24.37;52.05;100219.84;4862814;29;20045;-82
2021/08/12 01:57:57;;;;;;;4.97;4.47;;;;;;;24.36;52.26;100217.38;4877255;29;20056;-82
2021/08/12 02:00:25;;;;;;;6.10;4.68;;;;;;;24.24;52.69;100209.69;4864225;29;20060;-84
2021/08/12 02:02:54;;;;;;;6.07;4.57;;;;;;;24.20;53.11;100220.81;4874733;29;20048;-84
2021/08/12 02:05:22;;;;;;;6.75;4.63;;;;;;;24.21;52.75;100204.66;4860561;29;20050;-85
2021/08/12 02:07:49;;;;;;;5.35;4.05;;;;;;;24.16;52.89;100209.66;4859035;29;20054;-83
2021/08/12 02:10:18;;;;;;;7.43;4.80;;;;;;;24.19;52.91;100208.50;4859245;29;20140;-83
2021/08/12 02:12:46;;;;;;;5.32;4.82;;;;;;;24.33;52.26;100212.31;4860777;29;20053;-82
2021/08/12 02:15:14;;;;;;;7.80;4.18;;;;;;;24.20;52.53;100212.84;4876896;29;20123;-83
2021/08/12 02:17:41;;;;;;;6.72;5.30;;;;;;;24.28;52.64;100212.81;4877170;29;20065;-83
2021/08/12 02:20:11;;;;;;;11.30;6.47;;;;;;;24.37;52.55;100222.53;4874800;29;20619;-83
2021/08/12 02:22:52;;;;;;;7.28;4.75;;;;;;;24.40;52.40;100224.88;4858646;29;20049;-81
2021/08/12 02:25:32;;;;;;;7.43;5.20;;;;;;;24.30;52.81;100219.66;4859073;29;20046;-81
2021/08/12 02:28:06;;;;;;;7.80;4.93;;;;;;;24.28;52.81;100226.97;4866737;29;20045;-80
2021/08/12 02:30:37;;;;;;;8.68;5.50;;;;;;;24.28;52.95;100229.63;4860157;29;20124;-81
2021/08/12 02:33:06;;;;;;;6.10;5.00;;;;;;;23.98;54.29;100231.13;4858566;29;20105;-81
2021/08/12 02:35:35;;;;;;;6.32;5.10;;;;;;;23.98;54.37;100239.09;4858849;29;20084;-79
2021/08/12 02:38:04;;;;;;;8.48;5.03;;;;;;;24.07;54.29;100237.28;4865549;29;20112;-81
2021/08/12 02:40:31;;;;;;;5.28;4.57;;;;;;;23.96;54.72;100238.41;4870272;29;20548;-81
2021/08/12 02:43:00;;;;;;;11.73;5.30;;;;;;;24.00;54.58;100247.75;4858854;29;20442;-82
2021/08/12 02:45:29;;;;;;;7.88;4.72;;;;;;;23.87;54.88;100244.75;4858400;29;20104;-82
2021/08/12 02:47:57;;;;;;;6.57;4.80;;;;;;;23.99;54.49;100246.09;4861198;29;20053;-82
2021/08/12 02:50:25;;;;;;;11.02;4.50;;;;;;;23.92;54.45;100239.75;4877173;29;20045;-82
2021/08/12 02:52:52;;;;;;;9.80;4.65;;;;;;;23.81;54.92;100240.06;4877378;29;20626;-83
2021/08/12 02:55:21;;;;;;;5.93;5.25;;;;;;;23.73;55.11;100238.19;4865001;29;20051;-82
2021/08/12 02:57:48;;;;;;;5.72;4.75;;;;;;;23.75;55.51;100241.53;4858533;29;20049;-83
2021/08/12 03:00:16;;;;;;;9.50;5.57;;;;;;;23.76;55.14;100242.38;4859839;29;20061;-83
2021/08/12 03:02:46;;;;;;;7.95;4.63;;;;;;;23.84;54.64;100230.91;4858187;29;20133;-83
2021/08/12 03:05:15;;;;;;;6.47;4.30;;;;;;;23.73;54.38;100232.03;4858601;29;20386;-84
2021/08/12 03:07:46;;;;;;;5.60;4.70;;;;;;;23.84;54.12;100238.91;4846660;29;20053;-85
2021/08/12 03:10:16;;;;;;;8.52;4.60;;;;;;;23.84;53.95;100229.09;4858609;29;20046;-84
2021/08/12 03:12:44;;;;;;;11.82;4.60;;;;;;;23.82;54.39;100236.41;4859653;29;20122;-84
2021/08/12 03:15:12;;;;;;;6.57;5.03;;;;;;;23.93;53.86;100236.09;4858489;29;20484;-82
2021/08/12 03:17:43;;;;;;;5.97;4.63;;;;;;;23.73;54.84;100232.88;4858956;29;20050;-83
2021/08/12 03:20:12;;;;;;;8.02;5.50;;;;;;;23.66;55.24;100234.53;4859609;29;20057;-82
2021/08/12 03:22:41;;;;;;;10.77;4.38;;;;;;;23.48;55.50;100236.41;4868130;29;20063;-82
2021/08/12 03:25:10;;;;;;;7.05;4.97;;;;;;;23.62;55.14;100238.47;4861033;29;20050;-82
2021/08/12 03:27:41;;;;;;;6.18;4.45;;;;;;;23.46;55.57;100244.56;4873341;29;20050;-82
2021/08/12 03:30:08;;;;;;;9.07;5.43;;;;;;;23.62;55.72;100251.78;4861682;29;20069;-83
2021/08/12 03:32:35;;;;;;;6.28;4.72;;;;;;;23.59;55.27;100253.91;4861898;29;20053;-82
2021/08/12 03:35:03;;;;;;;5.07;4.57;;;;;;;23.68;55.79;100251.16;4874735;29;20045;-83
2021/08/12 03:37:30;;;;;;;6.60;5.75;;;;;;;23.77;54.94;100266.16;4880164;29;20385;-83
2021/08/12 03:39:57;;;;;;;15.35;6.18;;;;;;;23.78;55.36;100270.50;4867866;29;20382;-83
2021/08/12 03:42:23;;;;;;;8.32;5.28;;;;;;;23.68;55.39;100271.63;4861682;29;20069;-83
2021/08/12 03:44:50;;;;;;;7.03;5.82;;;;;;;23.64;55.90;100280.91;4861382;29;20475;-85
2021/08/12 03:47:19;;;;;;;8.63;5.25;;;;;;;24.02;55.34;100279.53;4866730;29;20104;-83
2021/08/12 03:49:46;;;;;;;9.15;6.38;;;;;;;23.82;55.67;100283.50;4862799;29;20052;-85
2021/08/12 03:52:13;;;;;;;8.40;6.03;;;;;;;23.96;55.49;100282.84;4861533;29;20097;-85
2021/08/12 03:54:39;;;;;;;7.82;6.28;;;;;;;23.70;55.62;100291.75;4862699;29;20123;-84
2021/08/12 03:57:07;;;;;;;11.93;6.97;;;;;;;23.57;55.43;100291.34;4879677;29;20128;-84
2021/08/12 03:59:36;;;;;;;9.88;6.20;;;;;;;22.88;58.13;100303.72;4870925;29;20053;-84
2021/08/12 04:02:04;;;;;;;9.93;5.95;;;;;;;22.89;58.79;100300.06;4861129;29;20046;-83
2021/08/12 04:04:31;;;;;;;10.20;6.15;;;;;;;22.87;59.47;100302.00;4861304;29;20492;-83
2021/08/12 04:06:58;;;;;;;9.32;5.95;;;;;;;22.67;60.00;100288.06;4862437;29;20045;-83
2021/08/12 04:09:26;;;;;;;6.68;5.97;;;;;;;22.62;60.17;100294.81;4861530;29;20093;-84
2021/08/12 04:11:53;;;;;;;6.90;5.88;;;;;;;22.58;60.22;100304.09;4860675;29;20412;-83
2021/08/12 04:14:20;;;;;;;8.82;6.28;;;;;;;22.70;59.74;100297.56;4865359;29;20055;-85
2021/08/12 04:16:47;;;;;;;10.52;5.45;;;;;;;22.70;59.93;100302.88;4864904;29;20128;-83
2021/08/12 04:19:19;;;;;;;7.18;5.40;;;;;;;22.51;61.02;100295.06;4861266;29;20046;-83
2021/08/12 04:21:47;;;;;;;12.18;5.45;;;;;;;22.46;60.80;100298.16;4860985;29;20042;-83
2021/08/12 04:24:14;;;;;;;6.18;5.57;;;;;;;22.49;60.82;100301.38;4868172;29;20052;-83
2021/08/12 04:26:41;;;;;;;9.02;5.47;;;;;;;22.45;61.34;100300.00;4860925;29;20462;-83
2021/08/12 04:29:07;;;;;;;7.15;5.78;;;;;;;22.34;61.50;100307.34;4867532;29;20052;-83
2021/08/12 04:31:34;;;;;;;14.65;7.15;;;;;;;22.45;61.10;100305.31;4862279;29;20045;-81
2021/08/12 04:34:01;;;;;;;6.88;5.63;;;;;;;22.54;60.80;100314.19;4864022;29;20105;-82
2021/08/12 04:36:28;;;;;;;7.55;5.05;;;;;;;22.58;60.40;100314.72;4861655;29;20049;-82
2021/08/12 04:38:55;;;;;;;9.45;6.18;;;;;;;22.40;61.15;100312.06;4863844;29;20041;-82
2021/08/12 04:41:22;;;;;;;5.80;5.03;;;;;;;22.49;61.14;100311.16;4863253;29;20353;-83
2021/08/12 04:43:49;;;;;;;9.20;5.88;;;;;;;22.54;61.10;100310.72;4876725;29;20128;-85
2021/08/12 04:46:17;;;;;;;6.18;5.55;;;;;;;22.60;60.83;100323.38;4870220;29;20041;-85
2021/08/12 04:48:45;;;;;;;8.80;5.88;;;;;;;22.70;60.59;100313.50;4868341;29;20067;-83
2021/08/12 04:51:12;;;;;;;5.75;5.05;;;;;;;22.82;60.27;100309.63;4868314;29;20102;-83
2021/08/12 04:53:40;;;;;;;8.82;5.13;;;;;;;22.79;60.37;100311.72;4865191;29;20132;-83
2021/08/12 04:56:07;;;;;;;8.88;5.68;;;;;;;22.82;60.42;100309.63;4863856;29;20038;-82
2021/08/12 04:58:33;;;;;;;12.50;6.72;;;;;;;22.94;60.06;100318.19;4861761;29;20060;-86
2021/08/12 05:01:01;;;;;;;12.95;5.43;;;;;;;23.05;59.76;100317.94;4862242;29;20046;-86
2021/08/12 05:03:28;;;;;;;11.57;6.82;;;;;;;23.18;59.09;100317.56;4866964;29;20083;-87
2021/08/12 05:06:09;;;;;;;12.00;6.40;;;;;;;23.26;59.09;100322.91;4864557;29;20045;-88
2021/08/12 05:08:36;;;;;;;9.98;5.80;;;;;;;23.43;58.64;100331.81;4869918;29;20143;-86
2021/08/12 05:11:08;;;;;;;14.43;5.70;;;;;;;23.50;58.34;100325.72;4870458;29;20053;-88
2021/08/12 05:13:36;;;;;;;10.63;5.80;;;;;;;23.52;58.29;100326.38;4868840;29;20529;-88
2021/08/12 05:16:06;;;;;;;6.82;5.60;;;;;;;23.83;57.40;100328.56;4865770;29;20450;-88
2021/08/12 05:18:37;;;;;;;7.30;5.05;;;;;;;23.96;57.67;100328.94;4863414;29;20037;-86
2021/08/12 05:21:04;;;;;;;11.27;5.63;;;;;;;23.93;57.56;100333.78;4863624;29;20073;-86
2021/08/12 05:23:31;;;;;;;12.38;5.95;;;;;;;24.23;56.99;100340.34;4868499;29;20109;-84
2021/08/12 05:25:58;;;;;;;6.60;5.78;;;;;;;24.48;55.95;100338.59;4868280;29;20088;-87
2021/08/12 05:28:25;;;;;;;18.83;6.18;;;;;;;24.61;56.11;100346.09;4862315;29;20057;-87
2021/08/12 05:30:51;;;;;;;8.63;5.70;;;;;;;24.53;56.27;100342.44;4860536;29;20042;-85
2021/08/12 05:33:19;;;;;;;11.40;5.38;;;;;;;24.64;56.19;100343.94;4850340;29;20128;-87
2021/08/12 05:35:46;;;;;;;9.35;5.40;;;;;;;25.17;54.68;100344.47;4863821;29;20068;-85
2021/08/12 05:38:14;;;;;;;9.13;5.90;;;;;;;25.34;52.98;100346.94;4860381;29;20132;-84
2021/08/12 05:40:41;;;;;;;6.75;4.95;;;;;;;24.96;53.18;100350.28;4861074;29;20395;-86
2021/08/12 05:43:08;;;;;;;9.60;5.38;;;;;;;25.06;54.56;100343.81;4871377;29;20052;-84
2021/08/12 05:45:35;;;;;;;8.18;5.53;;;;;;;25.42;53.67;100351.44;4864873;29;20052;-84
2021/08/12 05:48:02;;;;;;;8.35;5.85;;;;;;;25.36;53.49;100354.78;4866048;29;20505;-84
2021/08/12 05:50:28;;;;;;;10.48;6.38;;;;;;;25.41;51.99;100357.78;4863515;29;20046;-84
2021/08/12 05:52:55;;;;;;;10.93;5.55;;;;;;;25.34;52.64;100356.78;4864412;29;20560;-85
2021/08/12 05:55:22;;;;;;;7.70;5.32;;;;;;;25.54;51.78;100358.06;4861218;29;20128;-85
2021/08/12 05:57:49;;;;;;;8.23;5.82;;;;;;;25.91;50.96;100359.31;4861782;29;20519;-85
2021/08/12 06:00:16;;;;;;;16.08;5.43;;;;;;;25.91;51.10;100356.66;4859447;29;20053;-85
2021/08/12 06:02:43;;;;;;;11.75;6.00;;;;;;;26.21;49.69;100367.53;4863900;29;20045;-82
2021/08/12 06:05:15;;;;;;;11.50;5.65;;;;;;;26.63;48.60;100367.97;4863075;29;20038;-84
2021/08/12 06:07:43;;;;;;;11.20;5.80;;;;;;;26.45;49.33;100371.94;4861075;29;20453;-85
2021/08/12 06:10:10;;;;;;;8.77;6.57;;;;;;;26.45;48.71;100364.75;4860246;29;20132;-85
2021/08/12 06:12:37;;;;;;;7.55;6.32;;;;;;;26.57;48.50;100355.28;4861641;29;20474;-84
2021/08/12 06:15:06;;;;;;;8.80;5.90;;;;;;;26.69;47.63;100365.59;4847139;29;20764;-85
2021/08/12 06:17:37;;;;;;;11.15;5.43;;;;;;;26.68;48.30;100362.06;4848437;29;20049;-85
2021/08/12 06:20:04;;;;;;;9.07;5.55;;;;;;;26.74;47.98;100366.72;4860829;29;21504;-87
2021/08/12 06:22:32;;;;;;;15.00;6.38;;;;;;;26.59;48.13;100366.66;4869667;29;20141;-87
2021/08/12 06:24:59;;;;;;;11.95;6.07;;;;;;;26.64;48.29;100371.47;4872494;29;20061;-85
2021/08/12 06:27:26;;;;;;;15.65;6.75;;;;;;;27.02;47.07;100372.34;4867408;29;20105;-85
2021/08/12 06:29:53;;;;;;;12.25;5.65;;;;;;;26.99;47.05;100370.00;4858883;29;20038;-87
2021/08/12 06:32:20;;;;;;;10.00;5.72;;;;;;;27.19;47.09;100366.88;4861569;29;20045;-87
2021/08/12 06:34:47;;;;;;;9.13;5.90;;;;;;;27.03;47.91;100379.34;4863520;29;20506;-89
2021/08/12 06:37:14;;;;;;;20.90;6.00;;;;;;;26.91;48.54;100383.47;4868739;29;20532;-86
2021/08/12 06:39:40;;;;;;;12.18;6.15;;;;;;;26.93;49.36;100386.78;4863137;29;20152;-88
2021/08/12 06:42:07;;;;;;;8.57;5.93;;;;;;;26.89;49.61;100386.31;4868635;29;20052;-90
2021/08/12 06:44:54;;;;;;;7.80;5.82;;;;;;;27.00;48.70;100381.53;4859476;29;20446;-89
2021/08/12 06:47:20;;;;;;;9.32;6.25;;;;;;;26.70;49.86;100380.63;4862334;29;20085;-84
2021/08/12 06:49:51;;;;;;;15.63;6.18;;;;;;;26.73;49.42;100388.28;4864884;29;20037;-82
2021/08/12 06:52:18;;;;;;;19.50;7.25;;;;;;;26.91;48.74;100394.19;4863363;29;20405;-83
2021/08/12 06:54:45;;;;;;;17.80;6.97;;;;;;;26.99;48.66;100394.09;4858086;29;20045;-81
2021/08/12 06:57:13;;;;;;;9.15;6.45;;;;;;;26.61;49.03;100394.03;4859890;29;20073;-80
2021/08/12 06:59:42;;;;;;;10.23;7.05;;;;;;;26.51;49.08;100395.28;4858098;29;20113;-83
2021/08/12 07:02:10;;;;;;;9.38;6.07;;;;;;;26.41;49.60;100397.31;4863484;29;20049;-81
2021/08/12 07:04:37;;;;;;;14.23;7.07;;;;;;;26.48;49.53;100401.00;4866414;29;20046;-81
2021/08/12 07:07:04;;;;;;;10.38;6.00;;;;;;;26.62;49.21;100395.69;4868352;29;20061;-82
2021/08/12 07:09:32;;;;;;;9.32;6.00;;;;;;;26.98;48.28;100399.63;4870193;29;20395;-81
2021/08/12 07:11:59;;;;;;;12.55;7.20;;;;;;;26.76;48.17;100395.94;4872918;29;20493;-81
2021/08/12 07:14:27;;;;;;;9.75;7.18;;;;;;;26.60;49.00;100395.06;4849001;29;20042;-81
2021/08/12 07:16:54;;;;;;;11.57;6.53;;;;;;;26.72;48.92;100400.81;4865961;29;20053;-87
2021/08/12 07:19:21;;;;;;;13.07;8.35;;;;;;;26.91;48.19;100394.19;4865184;29;20045;-82
2021/08/12 07:21:47;;;;;;;12.68;6.88;;;;;;;26.94;48.16;100398.31;4863839;29;20406;-88
2021/08/12 07:24:19;;;;;;;11.85;6.60;;;;;;;27.18;47.70;100390.13;4867727;29;20049;-76
2021/08/12 07:26:47;;;;;;;16.08;8.07;;;;;;;27.10;48.05;100391.03;4872599;29;20058;-77
2021/08/12 07:29:18;;;;;;;9.35;6.60;;;;;;;27.09;47.85;100392.03;4863496;29;20037;-82
2021/08/12 07:31:45;;;;;;;10.45;6.45;;;;;;;27.24;47.57;100391.25;4860565;29;20049;-79
2021/08/12 07:34:13;;;;;;;8.13;6.60;;;;;;;27.13;47.77;100387.16;4860104;29;20559;-81
2021/08/12 07:36:40;;;;;;;9.10;5.65;;;;;;;27.35;47.62;100388.13;4870483;29;20052;-78
2021/08/12 07:39:08;;;;;;;10.05;6.53;;;;;;;27.29;47.17;100388.88;4866214;29;20049;-78
2021/08/12 07:41:40;;;;;;;12.73;7.25;;;;;;;27.41;46.84;100390.06;4864498;29;20037;-78
2021/08/12 07:44:07;;;;;;;7.70;6.28;;;;;;;27.46;47.48;100387.69;4865087;29;20564;-78
2021/08/12 07:46:34;;;;;;;12.68;7.65;;;;;;;27.26;47.88;100391.88;4865718;29;20389;-80
2021/08/12 07:49:01;;;;;;;9.75;6.32;;;;;;;27.33;47.87;100387.50;4864008;29;20041;-80
2021/08/12 07:51:29;;;;;;;8.88;6.88;;;;;;;27.58;46.76;100386.22;4866733;29;20052;-78
2021/08/12 07:53:56;;;;;;;9.25;7.55;;;;;;;27.58;46.67;100388.88;4875184;29;20049;-81
2021/08/12 07:56:22;;;;;;;9.55;6.38;;;;;;;27.53;46.52;100385.09;4862995;29;20046;-79
2021/08/12 07:58:49;;;;;;;13.65;7.00;;;;;;;27.69;46.61;100388.41;4862331;29;20061;-78
2021/08/12 08:01:18;;;;;;;8.75;6.63;;;;;;;27.84;46.21;100384.94;4869834;29;20048;-78
2021/08/12 08:03:46;;;;;;;12.25;6.75;;;;;;;27.75;46.43;100380.69;4871800;29;20061;-78
2021/08/12 08:06:13;;;;;;;9.95;6.05;;;;;;;27.88;45.84;100381.72;4867538;29;20061;-79
2021/08/12 08:08:40;;;;;;;9.20;5.82;;;;;;;28.04;45.84;100380.69;4862805;29;20045;-79
2021/08/12 08:11:07;;;;;;;6.90;5.72;;;;;;;28.04;45.60;100377.19;4863681;29;20057;-79
2021/08/12 08:13:34;;;;;;;10.07;6.55;;;;;;;27.94;45.77;100382.81;4862259;29;20148;-79
2021/08/12 08:16:01;;;;;;;10.80;6.97;;;;;;;27.71;45.80;100380.25;4867786;29;20037;-79
2021/08/12 08:18:28;;;;;;;12.75;6.85;;;;;;;27.75;45.91;100375.34;4868237;29;20049;-78
2021/08/12 08:20:55;;;;;;;11.82;5.53;;;;;;;27.99;45.85;100376.91;4862748;29;20069;-78
2021/08/12 08:23:22;;;;;;;10.93;6.25;;;;;;;27.97;44.67;100374.44;4866551;29;20492;-78
2021/08/12 08:25:49;;;;;;;8.13;6.03;;;;;;;27.98;45.30;100369.91;4864751;29;20533;-78
2021/08/12 08:28:16;;;;;;;6.05;5.45;;;;;;;27.97;44.15;100374.44;4864582;29;20045;-81
2021/08/12 08:30:43;;;;;;;13.18;6.15;;;;;;;27.99;44.67;100372.38;4863096;29;20041;-79
2021/08/12 08:33:11;;;;;;;12.18;6.50;;;;;;;28.04;44.65;100375.34;4865010;29;20366;-78
2021/08/12 08:35:38;;;;;;;8.52;5.70;;;;;;;28.16;44.56;100368.47;4861875;29;20082;-78
2021/08/12 08:38:05;;;;;;;7.22;5.68;;;;;;;28.17;44.48;100366.59;4867371;29;20124;-78
2021/08/12 08:40:33;;;;;;;11.30;5.95;;;;;;;28.23;44.80;100373.06;4861743;29;20052;-79
2021/08/12 08:43:01;;;;;;;9.63;6.50;;;;;;;28.20;45.52;100369.75;4865461;29;20041;-79
2021/08/12 08:45:29;;;;;;;5.78;5.18;;;;;;;28.26;45.01;100362.81;4866509;29;20513;-78
2021/08/12 08:48:00;;;;;;;7.90;5.20;;;;;;;28.25;45.19;100371.88;4868391;29;20127;-79
2021/08/12 08:50:31;;;;;;;11.18;6.65;;;;;;;28.40;45.30;100370.03;4863791;29;20437;-79
2021/08/12 08:52:59;;;;;;;10.20;5.15;;;;;;;28.46;44.53;100373.78;4861082;29;20045;-80
2021/08/12 08:55:27;;;;;;;12.63;6.18;;;;;;;28.55;44.64;100380.69;4866266;29;20041;-79
2021/08/12 08:57:55;;;;;;;15.40;5.88;;;;;;;28.40;45.30;100379.91;4860224;29;20085;-78
2021/08/12 09:00:24;;;;;;;8.90;6.03;;;;;;;28.49;44.94;100373.41;4863052;29;20093;-82
2021/08/12 09:02:52;;;;;;;9.40;7.00;;;;;;;28.51;45.59;100382.09;4860540;29;20045;-79
2021/08/12 09:05:20;;;;;;;11.48;8.00;;;;;;;28.43;45.99;100384.88;4862002;29;20041;-81
2021/08/12 09:07:50;;;;;;;10.38;6.95;;;;;;;28.55;45.74;100375.34;4861343;29;20064;-82
2021/08/12 09:10:19;;;;;;;7.70;6.40;;;;;;;28.62;45.81;100381.59;4861662;29;20098;-80
2021/08/12 09:12:48;;;;;;;7.95;6.55;;;;;;;28.68;45.15;100388.88;4860288;29;20041;-80
2021/08/12 09:15:21;;;;;;;13.30;6.10;;;;;;;28.72;44.98;100383.97;4861595;29;20049;-82
2021/08/12 09:17:53;;;;;;;17.08;7.30;;;;;;;28.63;45.59;100388.59;4865027;29;20033;-84
2021/08/12 09:20:26;;;;;;;12.38;6.57;;;;;;;28.82;45.48;100380.97;4863156;29;20442;-82
2021/08/12 09:23:02;;;;;;;8.88;6.78;;;;;;;28.68;46.20;100380.81;4859109;29;20057;-81
2021/08/12 09:25:49;;;;;;;10.25;7.40;;;;;;;28.86;45.53;100382.22;4860587;29;20038;-83
2021/08/12 09:28:27;;;;;;;11.43;7.22;;;;;;;28.88;45.90;100383.69;4861564;29;20053;-82
2021/08/12 09:31:00;;;;;;;14.15;7.28;;;;;;;29.05;45.56;100375.41;4865258;29;20043;-82
2021/08/12 09:33:58;;;;;;;12.57;7.85;;;;;;;28.77;45.36;100380.72;4861111;29;20080;-82
2021/08/12 09:36:37;;;;;;;10.80;5.85;;;;;;;28.91;45.50;100369.06;4862658;29;20045;-82
2021/08/12 09:39:18;;;;;;;10.18;6.25;;;;;;;29.05;45.25;100365.50;4873574;29;20390;-82
2021/08/12 09:41:48;;;;;;;8.32;6.57;;;;;;;29.17;44.37;100374.66;4868444;29;20053;-86
2021/08/12 09:44:30;;;;;;;10.88;6.32;;;;;;;29.15;43.93;100373.22;4869914;29;20105;-84
2021/08/12 09:46:57;;;;;;;7.65;6.40;;;;;;;29.27;43.60;100370.81;4865242;29;20048;-82
2021/08/12 09:49:24;;;;;;;9.65;7.20;;;;;;;29.00;44.30;100375.97;4872605;29;20050;-81
2021/08/12 09:51:51;;;;;;;7.30;6.55;;;;;;;29.04;44.26;100374.59;4864071;29;20047;-82
2021/08/12 09:54:29;;;;;;;10.60;7.53;;;;;;;29.19;43.65;100374.47;4868384;29;20037;-83
2021/08/12 09:56:56;;;;;;;16.80;7.60;;;;;;;29.24;43.21;100372.03;4866250;29;20404;-84
2021/08/12 09:59:23;;;;;;;17.17;6.68;;;;;;;29.21;43.20;100373.28;4862013;29;20101;-85
2021/08/12 10:02:12;;;;;;;7.82;6.88;;;;;;;29.48;42.70;100370.78;4867556;29;20425;-83
2021/08/12 10:04:40;;;;;;;11.38;6.45;;;;;;;29.40;41.77;100366.41;4874527;29;20553;-86
2021/08/12 10:07:07;;;;;;;8.18;6.97;;;;;;;29.48;42.01;100371.59;4862963;29;20041;-85
2021/08/12 10:09:40;;;;;;;12.48;9.00;;;;;;;29.37;43.85;100365.94;4866784;29;20053;-83
2021/08/12 10:12:08;;;;;;;12.50;7.95;;;;;;;29.51;43.74;100365.00;4870156;29;20093;-84
2021/08/12 10:14:35;;;;;;;12.95;7.97;;;;;;;29.70;43.32;100367.00;4859246;29;20049;-79
2021/08/12 10:17:03;;;;;;;13.10;8.73;;;;;;;29.56;43.10;100376.00;4858974;29;20141;-78
2021/08/12 10:19:31;;;;;;;9.88;7.45;;;;;;;29.59;43.26;100374.78;4863490;29;20076;-86
2021/08/12 10:21:59;;;;;;;9.40;7.80;;;;;;;29.88;41.25;100368.31;4869643;29;20053;-79
2021/08/12 10:24:28;;;;;;;12.48;7.50;;;;;;;29.84;42.01;100375.97;4867132;29;20080;-79
2021/08/12 10:26:56;;;;;;;9.93;6.97;;;;;;;29.89;41.18;100359.25;4859754;29;20042;-79
2021/08/12 10:29:28;;;;;;;10.50;7.10;;;;;;;29.95;40.88;100366.50;4859891;29;20102;-78
2021/08/12 10:31:55;;;;;;;13.65;6.53;;;;;;;29.92;40.78;100377.66;4865169;29;20462;-78
2021/08/12 10:34:23;;;;;;;8.98;6.85;;;;;;;29.81;40.95;100370.16;4867545;29;20068;-85
2021/08/12 10:36:51;;;;;;;10.88;6.68;;;;;;;29.98;41.45;100364.22;4861639;29;20437;-80
2021/08/12 10:39:19;;;;;;;10.88;6.20;;;;;;;30.01;40.86;100368.41;4870112;29;20393;-80
2021/08/12 10:41:46;;;;;;;10.60;6.03;;;;;;;30.01;40.56;100371.91;4865263;29;20516;-86
2021/08/12 10:44:18;;;;;;;13.15;5.55;;;;;;;30.20;40.57;100359.63;4859920;29;20166;-83
2021/08/12 10:46:45;;;;;;;7.55;6.57;;;;;;;30.20;40.10;100366.81;4861670;29;20429;-85
2021/08/12 10:49:33;;;;;;;10.02;5.95;;;;;;;30.11;41.21;100363.47;4864245;29;20049;-78
2021/08/12 10:52:08;;;;;;;11.38;5.53;;;;;;;30.20;39.26;100369.50;4857146;29;20057;-78
2021/08/12 10:54:38;;;;;;;14.30;6.85;;;;;;;30.32;39.30;100364.41;4859413;29;20553;-77
2021/08/12 10:57:19;;;;;;;10.70;5.93;;;;;;;30.31;39.37;100368.94;4857843;29;20045;-77
2021/08/12 10:59:47;;;;;;;11.18;5.43;;;;;;;30.31;38.73;100366.25;4861397;29;20503;-77
2021/08/12 11:02:41;;;;;;;8.65;5.55;;;;;;;30.41;39.58;100361.28;4861603;29;20404;-78
2021/08/12 11:05:08;;;;;;;7.88;5.95;;;;;;;30.42;39.13;100362.16;4854833;29;20053;-76
2021/08/12 11:07:38;;;;;;;7.38;5.28;;;;;;;30.54;38.79;100363.22;4860106;29;20093;-77
2021/08/12 11:10:10;;;;;;;12.98;6.45;;;;;;;30.47;38.13;100357.00;4858911;29;20052;-79
2021/08/12 11:12:52;;;;;;;7.03;5.68;;;;;;;30.40;38.73;100350.75;4862695;29;20041;-79
2021/08/12 11:15:40;;;;;;;5.80;4.90;;;;;;;30.58;38.87;100351.00;4861040;29;20040;-80
2021/08/12 11:18:11;;;;;;;7.55;5.53;;;;;;;30.61;38.25;100353.28;4860642;29;20446;-78
2021/08/12 11:20:41;;;;;;;7.05;5.10;;;;;;;30.64;38.31;100347.50;4859357;29;20117;-78
2021/08/12 11:23:17;;;;;;;7.25;4.68;;;;;;;31.15;37.38;100348.75;4860515;29;20072;-80
2021/08/12 11:25:58;;;;;;;9.88;5.47;;;;;;;30.60;37.94;100351.63;4861085;29;20048;-78
2021/08/12 11:28:57;;;;;;;8.35;5.07;;;;;;;30.70;38.83;100344.00;4858177;29;20049;-80
2021/08/12 11:31:24;;;;;;;5.88;5.03;;;;;;;31.10;36.58;100346.69;4854191;29;20397;-77
2021/08/12 11:33:52;;;;;;;11.00;4.78;;;;;;;31.10;37.00;100341.31;4859835;29;20060;-79